Hauptseite
METAR-TAF:

METAR-TAF

Flughäfen :

Flughafen Verona

Verona, Italien

Breite: 45-23N, Länge: 010-52E, Höhe: 67 m

Beobachtung

Neuester Wetterbericht von vor 25 Minuten, um 15:20 UTC
Wind 9 kt aus Ost, variierte zwischen Nordost und Ost/Südost
Temperatur 21°C
Luftfeuchtigkeit 53%
Luftdruck 1018 hPa
Sichtweite 10 km oder mehr
keine Wolken unter 1500 m und keine Kumulonimbus oder Gewitterwolken

METAR: LIPX 151520Z 08009KT 050V110 CAVOK 21/11 Q1018

Zeit: 17:45 (15:45 UTC)

Prognose

Neuester Wetterbericht von vor 1 Stunde und 45 Minuten, um 14:00 UTC
Gültige Prognose vom 15 um 15 UTC bis 15 um 24 UTC
Wind 5 kt aus unterschiedlichen Richtungen
Sichtweite 10 km oder mehr
Aufgelockert bewölkt in der Höhe von 6000 ft

TAF: LIPX 151400Z 1515/1524 VRB05KT 9999 SCT060

Wetterbeobachtungen und Prognosen von mehr als 4000 Flughäfen (METAR und TAF Bericht).

Die verfügbaren Stationen werden durch gelbe und rote Markierungen auf der Karte dargestellt.

Führen Sie die Maus auf sie, um den Namen der Station zu sehen.

Darauf klicken, um die Beobachtung von Wetterbeobachtungen und Prognosen zu sehen.

Um die Karte zu ändern : klicken Sie auf den grünen Tasten mit einem schwarzen Kreuz Zum Vergrößern, auf den grünen Button mit einem Gedankenstrich zu verkleinern, oder auf die grünen Pfeile für benachbarte Karten.


METAR-TAF: